Ana Sayfa
METAR-TAF:

METAR-TAF

Havaalanları :

Guilin, Çin

Enlem: 25-20N, Boylam: 110-18E, yükseklik: 166 m

Güncel hava durumu gözlemi

Rapor saat 11:00 UTC de 1 saat ve 6 dakika önce yapıldı.
Rüzgar değişken yönden 2 kt
Sıcaklık 12°C
Nem 71%
Basınç 1018 hPa
Görüş mesafesi 10 km veya daha fazla
3300 ft yükseklikte parçalı bulutlu
6600 ft yükseklikte çok bulutlu

METAR: ZGKL 231100Z VRB01MPS 9999 SCT033 OVC066 12/07 Q1018 NOSIG

Saat: 20:06 (12:06 UTC)

Tahmin

Rapor saat 09:13 UTC de 2 saat ve 53 dakika önce yapıldı.
Ayın 23'si saat 12 UTC'den ayın 24'si saat 12 UTC'ye kadar geçerli Tahmin
Rüzgar güneydan 4 kt
Görüş mesafesi: 6000 m
4000 ft yükseklikte parçalı bulutlu
6000 ft yükseklikte çok bulutlu
Geçici
ayın 23'si saat 16 UTC'den ayın 23'si saat 22 UTC'ye kadar
Görüş mesafesi: 2800 m
hafif yağmur, Pus

TAF: ZGKL 230913Z 2312/2412 18002MPS 6000 SCT040 OVC060 TX14/2408Z TN08/2322Z TEMPO 2316/2322 2800 -RA BR

4.000'den fazla havaalanı için hava durumu gözlemleri ve tahminleri (METAR ve TAF raporları).

Kullanılabilir istasyonlar harita üzerinde sarı ve kırmızı noktalarla gösterilir.

İstasyonun adını görmek için fareyi noktanın üzerinde gezdirin.

Sonrasında hava gözlem ve tahminlerini görmek için tıklayın.

Haritayı değiştirmek için: yaklaştırmak için siyah artı işaretli yeşil düğmeye ve uzaklaştırmak için de eksi işaretli düğmeye hızla tıklayın; bitişik haritalar için yeşil okları kullanın.


METAR-TAF: